Terminal Aerodrome Forecast
Issued by NWS Blacksburg, VA

Home | Current Version | Previous Version | Text Only | Print | Product List | Glossary On
Versions: 1 2 3 4 5 6 7 8 9 10 11 12 13 14 15 16 17 18 19 20 21 22 23 24 25 26 27 28 29 30 31 32 33 34 35 36
461
FTUS41 KRNK 282320
TAFLYH
TAF
KLYH 282320Z 2900/2924 06007KT P6SM OVC006
      TEMPO 2902/2904 OVC011
     FM290700 00000KT 1SM BR OVC003
     FM291500 VRB03KT P6SM OVC012
     FM291800 VRB03KT P6SM SCT030=

USA.gov is the U.S. government's official web portal to all federal, state and local government web resources and services.